Time;durP1;ratioP1;P1;durP2;ratioP2;P2;SDS_P1;SDS_P2;PMS_P1;PMS_P2;Temp;Humidity;BMP_temperature;BMP_pressure;BME280_temperature;BME280_humidity;BME280_pressure;Samples;Min_cycle;Max_cycle;Signal;HPM_P1;HPM_P2
2021/12/13 00:00:30;;;;;;;2.57;2.37;;;8.00;1.00;;;;;;4975937;28;20486;-84
2021/12/13 00:03:07;;;;;;;1.77;1.67;;;8.00;1.00;;;;;;4963543;28;20459;-84
2021/12/13 00:05:39;;;;;;;1.40;1.30;;;8.00;1.00;;;;;;4973316;28;20547;-84
2021/12/13 00:08:11;;;;;;;1.57;1.43;;;8.00;1.00;;;;;;4978284;28;20830;-83
2021/12/13 00:10:43;;;;;;;2.20;1.40;;;8.00;1.00;;;;;;4976956;28;20466;-85
2021/12/13 00:13:14;;;;;;;2.07;1.60;;;8.00;1.00;;;;;;4978844;28;21056;-84
2021/12/13 00:15:50;;;;;;;1.80;1.57;;;8.00;1.00;;;;;;4976904;28;20627;-84
2021/12/13 00:18:24;;;;;;;2.07;1.87;;;8.00;1.00;;;;;;4973730;28;20459;-84
2021/12/13 00:20:59;;;;;;;1.87;1.77;;;8.00;1.00;;;;;;4978622;28;20459;-85
2021/12/13 00:23:32;;;;;;;4.77;2.00;;;8.00;1.00;;;;;;4976525;28;20467;-83
2021/12/13 00:26:04;;;;;;;2.27;1.60;;;8.00;1.00;;;;;;4980756;28;20450;-83
2021/12/13 00:28:37;;;;;;;4.00;1.77;;;8.00;1.00;;;;;;4979203;28;20486;-83
2021/12/13 00:31:18;;;;;;;3.57;1.50;;;8.00;1.00;;;;;;4977768;28;20458;-82
2021/12/13 00:34:13;;;;;;;2.00;1.50;;;8.00;1.00;;;;;;4973913;28;20851;-84
2021/12/13 00:36:47;;;;;;;2.23;1.90;;;8.10;1.00;;;;;;4978456;28;20487;-83
2021/12/13 00:39:21;;;;;;;2.60;1.80;;;8.00;1.00;;;;;;4980083;28;20487;-83
2021/12/13 00:41:50;;;;;;;2.60;1.63;;;8.10;1.00;;;;;;4976839;28;20457;-84
2021/12/13 00:44:23;;;;;;;2.43;1.70;;;8.00;1.00;;;;;;4979704;28;21061;-84
2021/12/13 00:46:53;;;;;;;5.03;1.53;;;8.10;1.00;;;;;;4979217;28;20462;-83
2021/12/13 00:49:28;;;;;;;3.23;1.50;;;8.10;1.00;;;;;;4979196;28;21229;-84
2021/12/13 00:51:58;;;;;;;1.60;1.50;;;8.20;1.00;;;;;;4981493;28;20458;-84
2021/12/13 00:54:33;;;;;;;1.70;1.40;;;8.00;1.00;;;;;;4981098;28;20456;-83
2021/12/13 00:57:37;;;;;;;1.90;1.50;;;8.10;1.00;;;;;;4978854;28;20575;-84
2021/12/13 01:00:10;;;;;;;2.67;1.70;;;8.10;1.00;;;;;;4978650;28;20512;-82
2021/12/13 01:02:43;;;;;;;2.00;1.53;;;8.10;1.00;;;;;;4976048;28;20463;-85
2021/12/13 01:05:17;;;;;;;2.97;1.93;;;8.10;1.00;;;;;;4978674;28;20916;-83
2021/12/13 01:08:21;;;;;;;1.90;1.50;;;8.10;1.00;;;;;;4976572;28;20467;-83
2021/12/13 01:11:13;;;;;;;2.50;1.30;;;8.20;1.00;;;;;;4979547;28;20464;-84
2021/12/13 01:14:02;;;;;;;4.03;2.07;;;8.10;1.00;;;;;;4977016;28;20452;-85
2021/12/13 01:16:49;;;;;;;2.50;1.73;;;8.10;1.00;;;;;;4979304;28;20476;-85
2021/12/13 01:19:31;;;;;;;2.53;1.60;;;8.10;1.00;;;;;;4979051;28;20525;-84
2021/12/13 01:22:39;;;;;;;3.50;2.03;;;8.00;1.00;;;;;;4980352;28;21030;-85
2021/12/13 01:25:19;;;;;;;3.07;1.40;;;8.00;1.00;;;;;;4976889;28;20462;-85
2021/12/13 01:27:56;;;;;;;2.43;1.57;;;8.00;1.00;;;;;;4987135;28;21024;-84
2021/12/13 01:30:29;;;;;;;1.73;1.63;;;8.00;1.00;;;;;;4978795;28;20874;-85
2021/12/13 01:33:00;;;;;;;1.50;1.40;;;8.00;1.00;;;;;;4978342;28;20446;-85
2021/12/13 01:35:32;;;;;;;2.33;1.53;;;8.00;1.00;;;;;;4977612;28;20539;-83
2021/12/13 01:38:08;;;;;;;2.37;1.93;;;8.10;1.00;;;;;;4980550;28;20486;-83
2021/12/13 01:40:39;;;;;;;2.00;1.77;;;8.40;1.00;;;;;;4980413;28;20457;-84
2021/12/13 01:43:12;;;;;;;1.93;1.73;;;8.10;1.00;;;;;;4976549;28;20450;-84
2021/12/13 01:45:43;;;;;;;2.43;1.50;;;8.10;1.00;;;;;;4978514;28;20456;-82
2021/12/13 01:48:18;;;;;;;2.27;2.07;;;8.10;1.00;;;;;;4979069;28;20454;-83
2021/12/13 01:50:53;;;;;;;1.57;1.40;;;8.10;1.00;;;;;;4979505;28;20458;-84
2021/12/13 01:53:33;;;;;;;2.50;1.60;;;8.10;1.00;;;;;;4983779;28;21047;-83
2021/12/13 01:56:10;;;;;;;1.50;1.40;;;8.10;1.00;;;;;;4983190;28;20463;-83
2021/12/13 01:58:42;;;;;;;2.20;1.67;;;8.10;1.00;;;;;;4984465;28;20478;-83
2021/12/13 02:01:19;;;;;;;2.60;1.70;;;8.10;1.00;;;;;;4983298;28;20465;-85
2021/12/13 02:03:55;;;;;;;2.90;2.10;;;8.10;1.00;;;;;;4984141;28;20647;-85
2021/12/13 02:06:32;;;;;;;2.40;1.30;;;8.10;1.00;;;;;;4982711;28;20489;-83
2021/12/13 02:09:06;;;;;;;1.67;1.57;;;8.10;1.00;;;;;;4982044;28;20724;-83
2021/12/13 02:11:35;;;;;;;3.63;1.73;;;8.20;1.00;;;;;;4976739;28;20470;-83
2021/12/13 02:14:12;;;;;;;3.17;1.77;;;8.10;1.00;;;;;;4984106;28;20441;-84
2021/12/13 02:17:08;;;;;;;3.57;1.90;;;8.10;1.00;;;;;;4981195;28;20483;-84
2021/12/13 02:19:45;;;;;;;2.73;1.60;;;8.20;1.00;;;;;;4983608;28;20467;-84
2021/12/13 02:22:39;;;;;;;1.90;1.63;;;8.10;1.00;;;;;;4982849;28;20466;-84
2021/12/13 02:25:17;;;;;;;1.50;1.40;;;7.90;1.00;;;;;;4983353;28;20651;-84
2021/12/13 02:27:48;;;;;;;2.37;1.80;;;7.90;1.00;;;;;;4983720;28;20455;-85
2021/12/13 02:30:21;;;;;;;2.13;1.80;;;7.80;1.00;;;;;;4982771;28;20887;-84
2021/12/13 02:32:50;;;;;;;2.83;2.60;;;7.80;49.50;;;;;;4974939;28;20465;-84
2021/12/13 02:35:21;;;;;;;3.90;1.53;;;7.90;13.90;;;;;;4984720;28;20460;-86
2021/12/13 02:37:51;;;;;;;1.87;1.63;;;7.90;1.00;;;;;;4982131;28;20486;-85
2021/12/13 02:40:21;;;;;;;2.60;1.63;;;7.90;1.00;;;;;;4983739;28;20494;-84
2021/12/13 02:42:50;;;;;;;1.80;1.30;;;8.00;1.00;;;;;;4982103;28;20463;-86
2021/12/13 02:45:26;;;;;;;3.37;2.13;;;8.20;1.00;;;;;;4981611;28;20454;-85
2021/12/13 02:48:06;;;;;;;2.93;1.57;;;8.00;1.00;;;;;;4982335;28;20958;-83
2021/12/13 02:50:42;;;;;;;5.00;1.47;;;7.90;1.00;;;;;;4981014;28;20482;-84
2021/12/13 02:53:14;;;;;;;1.90;1.70;;;7.90;1.00;;;;;;4985402;28;20452;-83
2021/12/13 02:55:44;;;;;;;2.50;1.70;;;7.90;1.00;;;;;;4982039;28;20458;-83
2021/12/13 02:58:17;;;;;;;1.67;1.50;;;7.90;1.00;;;;;;4983184;28;20495;-83
2021/12/13 03:00:51;;;;;;;2.30;1.77;;;7.90;1.00;;;;;;4982341;28;20490;-85
2021/12/13 03:03:23;;;;;;;1.80;1.33;;;7.90;1.00;;;;;;4982613;28;20463;-84
2021/12/13 03:05:54;;;;;;;1.87;1.50;;;8.00;1.00;;;;;;4981717;28;20459;-84
2021/12/13 03:08:30;;;;;;;3.53;1.43;;;8.00;1.00;;;;;;4981212;28;20443;-84
2021/12/13 03:11:01;;;;;;;1.60;1.20;;;7.90;1.00;;;;;;4982362;28;20475;-84
2021/12/13 03:13:32;;;;;;;3.90;1.60;;;7.90;1.00;;;;;;4986730;28;20461;-83
2021/12/13 03:16:05;;;;;;;2.10;1.50;;;8.00;1.00;;;;;;4982881;28;20460;-83
2021/12/13 03:18:42;;;;;;;2.90;1.40;;;8.00;1.00;;;;;;4981452;28;21105;-84
2021/12/13 03:21:38;;;;;;;3.10;1.47;;;8.00;1.00;;;;;;4980023;28;20462;-83
2021/12/13 03:24:26;;;;;;;2.53;1.73;;;8.10;1.00;;;;;;4976645;28;20495;-85
2021/12/13 03:27:08;;;;;;;2.97;1.37;;;8.10;1.00;;;;;;4980232;28;20461;-85
2021/12/13 03:29:52;;;;;;;2.03;1.13;;;8.10;1.00;;;;;;4973740;28;20479;-85
2021/12/13 03:32:22;;;;;;;1.93;1.40;;;8.10;1.00;;;;;;4981849;28;20466;-83
2021/12/13 03:34:57;;;;;;;1.57;1.30;;;8.10;1.00;;;;;;4984008;28;20873;-84
2021/12/13 03:37:26;;;;;;;1.40;1.30;;;8.20;1.00;;;;;;4968751;28;21003;-82
2021/12/13 03:40:00;;;;;;;2.07;1.70;;;8.20;1.00;;;;;;4980714;28;20488;-84
2021/12/13 03:42:31;;;;;;;4.20;1.87;;;8.20;1.00;;;;;;4981369;28;20450;-85
2021/12/13 03:45:04;;;;;;;1.73;1.63;;;8.20;1.00;;;;;;4981183;28;20476;-84
2021/12/13 03:47:38;;;;;;;1.87;1.30;;;8.20;1.00;;;;;;4983100;28;20459;-84
2021/12/13 03:50:10;;;;;;;1.60;1.50;;;8.20;1.00;;;;;;4979992;28;21069;-85
2021/12/13 03:52:42;;;;;;;2.57;1.63;;;8.20;1.00;;;;;;4976954;28;20462;-83
2021/12/13 03:55:15;;;;;;;1.57;1.43;;;8.20;1.00;;;;;;4980593;28;21021;-83
2021/12/13 03:57:47;;;;;;;1.70;1.60;;;8.20;1.00;;;;;;4976334;28;20485;-84
2021/12/13 04:00:19;;;;;;;2.27;1.40;;;8.20;1.00;;;;;;4984077;28;20867;-83
2021/12/13 04:02:48;;;;;;;2.33;1.53;;;8.20;1.00;;;;;;4979737;28;20999;-84
2021/12/13 04:05:21;;;;;;;1.30;1.20;;;8.30;1.00;;;;;;4980726;28;20459;-84
2021/12/13 04:07:51;;;;;;;1.77;1.30;;;8.30;1.00;;;;;;4982364;28;20457;-84
2021/12/13 04:10:23;;;;;;;2.30;1.50;;;8.30;1.00;;;;;;4982426;28;20739;-84
2021/12/13 04:12:55;;;;;;;2.20;1.50;;;8.20;1.00;;;;;;4981634;28;20455;-85
2021/12/13 04:15:32;;;;;;;3.43;2.03;;;8.20;1.00;;;;;;4969794;28;20467;-84
2021/12/13 04:18:16;;;;;;;1.93;1.60;;;8.20;1.00;;;;;;4986009;28;20577;-85
2021/12/13 04:20:45;;;;;;;1.33;1.20;;;8.30;1.00;;;;;;4981805;28;20456;-83
2021/12/13 04:23:16;;;;;;;2.83;1.17;;;8.30;1.00;;;;;;4984877;28;20459;-86
2021/12/13 04:25:49;;;;;;;2.70;1.50;;;8.30;1.00;;;;;;4985633;28;20468;-84
2021/12/13 04:28:23;;;;;;;1.93;1.53;;;8.30;1.00;;;;;;4970994;28;20471;-84
2021/12/13 04:30:54;;;;;;;2.13;2.00;;;8.30;1.00;;;;;;4985694;28;20457;-85
2021/12/13 04:33:25;;;;;;;1.30;1.20;;;8.30;1.00;;;;;;4985170;28;20468;-84
2021/12/13 04:35:56;;;;;;;1.77;1.30;;;8.30;1.00;;;;;;4984795;28;20473;-85
2021/12/13 04:38:31;;;;;;;3.23;1.80;;;8.20;1.00;;;;;;4981922;28;20482;-85
2021/12/13 04:41:02;;;;;;;4.87;2.90;;;8.20;1.00;;;;;;4985511;28;20466;-85
2021/12/13 04:43:35;;;;;;;3.90;3.13;;;8.30;1.00;;;;;;4984933;28;20465;-84
2021/12/13 04:46:07;;;;;;;2.67;2.43;;;8.20;1.00;;;;;;4983826;28;20477;-84
2021/12/13 04:48:37;;;;;;;3.40;1.60;;;8.30;1.00;;;;;;4984551;28;21030;-84
2021/12/13 04:51:08;;;;;;;2.10;1.50;;;8.20;1.00;;;;;;4982278;28;20476;-84
2021/12/13 04:53:40;;;;;;;3.17;2.30;;;8.20;1.00;;;;;;4983063;28;20976;-83
2021/12/13 04:56:12;;;;;;;2.10;1.83;;;8.20;1.00;;;;;;4984952;28;20475;-83
2021/12/13 04:58:43;;;;;;;2.70;2.10;;;8.20;1.00;;;;;;4984495;28;20497;-84
2021/12/13 05:01:14;;;;;;;3.10;2.03;;;8.40;1.00;;;;;;4979019;28;20464;-83
2021/12/13 05:03:48;;;;;;;3.13;1.97;;;8.20;1.00;;;;;;4979678;28;20514;-84
2021/12/13 05:06:19;;;;;;;1.70;1.53;;;8.10;1.00;;;;;;4979908;28;20458;-84
2021/12/13 05:08:50;;;;;;;2.40;2.20;;;8.30;1.00;;;;;;4980547;28;20555;-84
2021/12/13 05:11:20;;;;;;;2.10;1.90;;;8.20;1.00;;;;;;4980764;28;20460;-83
2021/12/13 05:13:51;;;;;;;1.63;1.53;;;8.20;1.00;;;;;;4980316;28;20845;-84
2021/12/13 05:16:27;;;;;;;2.37;1.50;;;8.20;1.00;;;;;;4980860;28;20483;-84
2021/12/13 05:18:57;;;;;;;2.17;1.70;;;8.20;1.00;;;;;;4977303;28;20912;-83
2021/12/13 05:21:29;;;;;;;1.63;1.50;;;8.20;1.30;;;;;;4980468;28;20472;-84
2021/12/13 05:24:00;;;;;;;2.27;1.70;;;8.20;1.00;;;;;;4979740;28;20849;-85
2021/12/13 05:26:36;;;;;;;4.30;2.10;;;8.30;1.00;;;;;;4975360;28;20879;-84
2021/12/13 05:29:07;;;;;;;2.10;1.90;;;8.30;1.00;;;;;;4984094;28;20478;-84
2021/12/13 05:31:35;;;;;;;2.87;1.80;;;8.30;1.00;;;;;;4983887;28;20467;-80
2021/12/13 05:34:07;;;;;;;2.13;1.80;;;8.50;1.00;;;;;;4984915;28;20456;-82
2021/12/13 05:36:37;;;;;;;7.37;2.03;;;8.30;1.00;;;;;;4983134;28;20456;-81
2021/12/13 05:39:11;;;;;;;2.80;1.70;;;8.30;1.00;;;;;;4982859;28;20486;-81
2021/12/13 05:41:42;;;;;;;1.87;1.23;;;8.30;1.00;;;;;;4983920;28;21009;-81
2021/12/13 05:44:12;;;;;;;2.30;1.70;;;8.40;1.00;;;;;;4980413;28;20550;-81
2021/12/13 05:46:46;;;;;;;2.83;1.70;;;8.40;1.00;;;;;;4979820;28;20979;-82
2021/12/13 05:49:20;;;;;;;3.10;2.40;;;8.40;1.00;;;;;;4981354;28;20481;-81
2021/12/13 05:51:51;;;;;;;4.37;1.70;;;8.50;1.00;;;;;;4980509;28;20468;-81
2021/12/13 05:54:27;;;;;;;2.37;1.70;;;8.30;1.00;;;;;;4982677;28;20457;-81
2021/12/13 05:57:01;;;;;;;2.17;1.50;;;8.30;1.00;;;;;;4983912;28;20463;-81
2021/12/13 05:59:33;;;;;;;1.60;1.27;;;8.40;1.00;;;;;;4980503;28;21082;-82
2021/12/13 06:02:12;;;;;;;1.60;1.40;;;8.40;1.00;;;;;;4982189;28;20639;-85
2021/12/13 06:04:44;;;;;;;2.13;1.57;;;8.40;1.00;;;;;;4977785;28;21081;-81
2021/12/13 06:07:22;;;;;;;1.57;1.47;;;8.40;1.00;;;;;;4978861;28;20503;-79
2021/12/13 06:09:57;;;;;;;1.53;1.43;;;8.50;5.30;;;;;;4974672;28;20897;-81
2021/12/13 06:12:31;;;;;;;2.17;1.50;;;8.40;18.10;;;;;;4981885;28;20455;-81
2021/12/13 06:15:20;;;;;;;5.10;1.50;;;8.40;23.30;;;;;;4984183;28;20475;-80
2021/12/13 06:17:53;;;;;;;1.70;1.50;;;8.50;38.90;;;;;;4971635;28;20461;-82
2021/12/13 06:20:26;;;;;;;2.40;1.80;;;8.50;53.60;;;;;;4982598;28;20479;-81
2021/12/13 06:23:05;;;;;;;3.53;1.93;;;8.40;72.80;;;;;;4979405;28;20456;-81
2021/12/13 06:25:33;;;;;;;2.90;2.00;;;8.40;81.10;;;;;;4977949;28;20472;-81
2021/12/13 06:28:04;;;;;;;2.30;1.83;;;8.50;51.60;;;;;;4979218;28;20477;-81
2021/12/13 06:30:36;;;;;;;1.90;1.53;;;8.40;61.50;;;;;;4980305;28;21031;-81
2021/12/13 06:33:07;;;;;;;1.87;1.70;;;8.50;41.80;;;;;;4984454;28;20455;-81
2021/12/13 06:35:43;;;;;;;1.90;1.80;;;8.50;53.80;;;;;;4976405;28;20457;-81
2021/12/13 06:38:43;;;;;;;1.60;1.33;;;8.40;58.50;;;;;;4981478;28;20776;-81
2021/12/13 06:41:36;;;;;;;3.10;1.73;;;8.40;87.00;;;;;;4978736;28;20531;-81
2021/12/13 06:44:10;;;;;;;2.33;1.80;;;8.50;93.70;;;;;;4978502;28;20606;-80
2021/12/13 06:46:44;;;;;;;1.53;1.43;;;8.50;99.90;;;;;;4980232;28;20450;-81
2021/12/13 06:49:18;;;;;;;2.70;2.23;;;8.50;99.90;;;;;;4984376;28;20608;-81
2021/12/13 06:51:51;;;;;;;5.17;2.83;;;8.50;99.90;;;;;;4981974;28;20540;-80
2021/12/13 06:54:26;;;;;;;2.83;2.63;;;8.50;89.60;;;;;;4983335;28;20586;-82
2021/12/13 06:56:59;;;;;;;2.13;2.03;;;8.50;98.70;;;;;;4983832;28;20805;-81
2021/12/13 06:59:30;;;;;;;1.70;1.50;;;8.50;99.90;;;;;;4985281;28;20498;-82
2021/12/13 07:02:10;;;;;;;1.80;1.70;;;8.60;99.90;;;;;;4983398;28;20470;-82
2021/12/13 07:04:58;;;;;;;2.43;2.23;;;8.60;99.90;;;;;;4980114;28;20590;-81
2021/12/13 07:07:31;;;;;;;3.20;2.47;;;8.60;99.90;;;;;;4984424;28;20467;-80
2021/12/13 07:10:05;;;;;;;2.55;2.15;;;8.60;99.90;;;;;;4982643;28;20460;-80
2021/12/13 07:12:33;;;;;;;1.80;1.70;;;8.60;99.90;;;;;;4981691;28;20205;-81
2021/12/13 07:15:03;;;;;;;2.60;1.60;;;8.60;99.90;;;;;;4979481;28;21001;-80
2021/12/13 07:17:35;;;;;;;3.50;1.70;;;8.60;99.90;;;;;;4981496;28;20476;-79
2021/12/13 07:20:14;;;;;;;2.60;1.67;;;8.70;99.90;;;;;;4981343;28;20498;-81
2021/12/13 07:22:43;;;;;;;2.03;1.90;;;8.70;99.90;;;;;;4977243;28;20463;-81
2021/12/13 07:25:14;;;;;;;2.57;2.10;;;8.70;99.90;;;;;;4981197;28;20955;-80
2021/12/13 07:27:48;;;;;;;4.10;2.43;;;8.60;99.90;;;;;;4982950;28;20456;-81
2021/12/13 07:30:33;;;;;;;4.50;2.97;;;8.70;99.90;;;;;;4972874;28;20571;-81
2021/12/13 07:33:04;;;;;;;7.93;2.17;;;8.60;1.00;;;;;;4978437;28;21001;-80
2021/12/13 07:35:37;;;;;;;3.40;2.03;;;8.40;38.30;;;;;;4977853;28;21355;-80
2021/12/13 07:38:08;;;;;;;3.83;2.07;;;8.40;99.90;;;;;;4983394;28;20463;-82
2021/12/13 07:40:42;;;;;;;2.50;2.30;;;8.50;99.90;;;;;;4982429;28;20494;-81
2021/12/13 07:43:19;;;;;;;3.83;2.30;;;8.50;99.90;;;;;;4976314;28;20960;-81
2021/12/13 07:45:59;;;;;;;2.30;2.10;;;8.40;99.90;;;;;;4975841;28;20474;-80
2021/12/13 07:48:31;;;;;;;2.83;2.30;;;8.40;1.00;;;;;;4978119;28;20976;-81
2021/12/13 07:51:09;;;;;;;5.63;3.77;;;8.50;99.90;;;;;;4975889;28;20989;-81
2021/12/13 07:53:45;;;;;;;3.03;2.40;;;8.40;1.00;;;;;;4976633;28;20491;-79
2021/12/13 07:56:21;;;;;;;4.57;2.13;;;8.40;1.00;;;;;;4979802;28;20464;-80
2021/12/13 07:58:52;;;;;;;4.97;3.10;;;8.40;94.40;;;;;;4978465;28;20487;-81
2021/12/13 08:01:26;;;;;;;2.60;2.40;;;8.40;13.90;;;;;;4964391;28;20839;-81
2021/12/13 08:03:57;;;;;;;8.77;3.33;;;8.50;60.20;;;;;;4973329;28;20639;-81
2021/12/13 08:06:29;;;;;;;4.73;3.20;;;8.50;44.20;;;;;;4978286;28;20818;-81
2021/12/13 08:09:04;;;;;;;2.83;2.63;;;8.50;55.40;;;;;;4979152;28;21021;-81
2021/12/13 08:11:45;;;;;;;3.23;2.37;;;8.60;1.00;;;;;;4981555;28;20444;-80
2021/12/13 08:14:14;;;;;;;2.47;2.27;;;8.60;99.90;;;;;;4968464;28;20560;-81
2021/12/13 08:16:47;;;;;;;4.87;3.00;;;8.60;99.90;;;;;;4974389;28;20456;-81
2021/12/13 08:19:21;;;;;;;6.72;4.15;;;8.60;99.90;;;;;;4978466;28;20491;-80
2021/12/13 08:21:57;;;;;;;4.07;3.50;;;8.60;1.00;;;;;;4976171;28;20215;-82
2021/12/13 08:24:31;;;;;;;5.03;3.47;;;8.70;99.90;;;;;;4977973;28;20450;-81
2021/12/13 08:27:08;;;;;;;6.57;4.43;;;8.70;1.00;;;;;;4969326;28;20510;-81
2021/12/13 08:29:39;;;;;;;9.87;3.60;;;8.70;99.90;;;;;;4975476;28;20480;-80
2021/12/13 08:32:14;;;;;;;11.13;4.27;;;8.70;46.10;;;;;;4978254;28;20468;-80
2021/12/13 08:34:47;;;;;;;11.57;3.47;;;8.70;1.00;;;;;;4977728;28;20455;-80
2021/12/13 08:37:20;;;;;;;8.23;4.60;;;8.70;1.00;;;;;;4979303;28;20468;-81
2021/12/13 08:39:53;;;;;;;9.00;5.37;;;8.70;1.00;;;;;;4981827;28;20907;-81
2021/12/13 08:42:26;;;;;;;6.53;3.87;;;8.60;99.90;;;;;;4978622;28;20477;-81
2021/12/13 08:44:58;;;;;;;7.00;4.20;;;8.50;99.90;;;;;;4978833;28;20463;-80
2021/12/13 08:47:36;;;;;;;5.87;3.70;;;8.50;99.90;;;;;;4977712;28;20477;-79
2021/12/13 08:50:14;;;;;;;7.70;3.90;;;8.50;99.90;;;;;;4981716;28;20646;-81
2021/12/13 08:52:44;;;;;;;6.97;4.73;;;8.50;1.00;;;;;;4978095;28;20472;-80
2021/12/13 08:55:22;;;;;;;5.63;3.53;;;8.30;99.90;;;;;;4963098;28;20474;-81
2021/12/13 08:57:55;;;;;;;10.27;4.90;;;8.40;1.00;;;;;;4981900;28;20464;-80
2021/12/13 09:00:41;;;;;;;7.67;4.07;;;8.40;1.00;;;;;;4976620;28;20493;-81
2021/12/13 09:03:32;;;;;;;8.80;3.90;;;8.50;99.90;;;;;;4969191;28;20894;-81
2021/12/13 09:06:08;;;;;;;8.87;4.13;;;8.20;80.30;;;;;;4979430;28;20478;-80
2021/12/13 09:08:41;;;;;;;4.70;3.50;;;8.30;99.90;;;;;;4976368;28;20512;-80
2021/12/13 09:11:24;;;;;;;7.17;3.63;;;8.40;1.00;;;;;;4980795;28;20534;-81
2021/12/13 09:13:57;;;;;;;7.83;3.83;;;8.50;99.90;;;;;;4975681;28;20475;-80
2021/12/13 09:16:44;;;;;;;7.10;3.93;;;8.50;99.90;;;;;;4975892;28;21006;-81
2021/12/13 09:19:20;;;;;;;7.07;3.10;;;8.60;99.90;;;;;;4979383;28;20870;-79
2021/12/13 09:21:56;;;;;;;10.40;4.50;;;8.50;45.70;;;;;;4979040;28;20478;-81
2021/12/13 09:24:33;;;;;;;9.10;4.33;;;8.50;1.00;;;;;;4979279;28;20462;-81
2021/12/13 09:27:18;;;;;;;5.93;3.63;;;8.50;99.90;;;;;;4991660;28;20456;-81
2021/12/13 09:29:53;;;;;;;14.32;5.57;;;8.50;99.90;;;;;;4974541;28;21077;-80
2021/12/13 09:32:24;;;;;;;9.70;4.10;;;8.60;1.00;;;;;;4982933;28;20254;-81
2021/12/13 09:35:15;;;;;;;5.03;3.37;;;8.60;99.90;;;;;;4978203;28;20457;-81
2021/12/13 09:37:43;;;;;;;8.57;4.03;;;8.60;99.90;;;;;;4967455;28;20451;-81
2021/12/13 09:40:15;;;;;;;6.53;3.90;;;8.40;99.90;;;;;;4973064;28;20938;-80
2021/12/13 09:42:49;;;;;;;8.27;3.10;;;8.40;99.90;;;;;;4980895;28;20456;-81
2021/12/13 09:45:25;;;;;;;9.37;3.50;;;8.50;33.50;;;;;;4970555;28;20464;-81
2021/12/13 09:47:54;;;;;;;10.03;3.80;;;8.70;1.00;;;;;;4978651;28;20462;-81
2021/12/13 09:50:31;;;;;;;6.10;3.40;;;8.70;1.00;;;;;;4972721;28;20505;-82
2021/12/13 09:53:04;;;;;;;5.07;2.60;;;8.80;1.00;;;;;;4962196;28;20451;-81
2021/12/13 09:55:36;;;;;;;7.30;2.97;;;9.10;99.90;;;;;;4959273;28;20480;-81
2021/12/13 09:58:07;;;;;;;3.50;2.20;;;8.90;99.90;;;;;;4981262;28;20463;-81
2021/12/13 10:00:41;;;;;;;3.67;2.77;;;9.00;37.90;;;;;;4975073;28;20476;-80
2021/12/13 10:03:13;;;;;;;5.23;3.13;;;9.10;39.60;;;;;;4976498;28;20453;-81
2021/12/13 10:05:46;;;;;;;5.90;2.77;;;9.20;31.20;;;;;;4979878;28;20449;-81
2021/12/13 10:08:18;;;;;;;3.23;2.90;;;9.20;1.00;;;;;;4973437;28;21553;-81
2021/12/13 10:10:51;;;;;;;3.70;1.93;;;9.10;99.90;;;;;;4979847;28;20463;-81
2021/12/13 10:13:23;;;;;;;5.47;2.30;;;9.20;99.90;;;;;;4978649;28;20784;-80
2021/12/13 10:15:55;;;;;;;3.77;2.30;;;9.20;99.90;;;;;;4991677;28;20539;-81
2021/12/13 10:18:26;;;;;;;5.17;3.30;;;9.10;99.90;;;;;;4982001;28;20465;-81
2021/12/13 10:20:59;;;;;;;2.43;2.10;;;9.10;1.00;;;;;;4983557;28;20550;-81
2021/12/13 10:23:32;;;;;;;5.17;2.33;;;9.20;99.90;;;;;;4970622;28;20465;-81
2021/12/13 10:26:21;;;;;;;2.70;1.73;;;9.30;99.90;;;;;;4982697;28;20455;-81
2021/12/13 10:28:55;;;;;;;2.70;1.53;;;9.30;1.00;;;;;;4976002;28;20480;-81
2021/12/13 10:31:29;;;;;;;4.00;1.80;;;9.40;99.90;;;;;;4982495;28;20485;-82
2021/12/13 10:33:59;;;;;;;2.33;1.30;;;9.40;1.00;;;;;;4980784;28;20455;-80
2021/12/13 10:36:29;;;;;;;0.70;0.70;;;9.40;99.90;;;;;;4974881;28;20457;-80
2021/12/13 10:39:00;;;;;;;1.63;1.20;;;9.40;1.00;;;;;;4979239;28;20529;-81
2021/12/13 10:41:39;;;;;;;1.23;0.97;;;9.50;99.90;;;;;;4982410;28;20480;-80
2021/12/13 10:44:14;;;;;;;1.13;0.90;;;9.40;1.00;;;;;;4987488;28;20870;-81
2021/12/13 10:46:47;;;;;;;1.40;1.00;;;9.50;90.60;;;;;;4982921;28;20844;-81
2021/12/13 10:49:18;;;;;;;1.50;1.10;;;9.40;1.10;;;;;;4977874;28;20487;-82
2021/12/13 10:51:55;;;;;;;1.53;1.10;;;9.30;40.20;;;;;;4979548;28;20459;-82
2021/12/13 10:54:26;;;;;;;1.70;1.27;;;9.40;99.90;;;;;;4975218;28;20462;-81
2021/12/13 10:56:58;;;;;;;1.40;1.30;;;9.30;99.90;;;;;;4987198;28;20891;-82
2021/12/13 10:59:30;;;;;;;2.83;1.40;;;9.40;99.90;;;;;;4977631;28;20507;-81
2021/12/13 11:02:04;;;;;;;1.70;1.20;;;9.40;99.90;;;;;;4977416;28;20495;-82
2021/12/13 11:04:37;;;;;;;2.20;1.80;;;9.40;99.90;;;;;;4978497;28;21061;-81
2021/12/13 11:07:09;;;;;;;1.77;1.67;;;9.50;99.90;;;;;;4981601;28;20488;-82
2021/12/13 11:09:39;;;;;;;1.63;1.50;;;9.70;99.90;;;;;;4966033;28;20569;-80
2021/12/13 11:12:12;;;;;;;1.63;1.33;;;9.50;99.90;;;;;;4981760;28;20453;-81
2021/12/13 11:14:44;;;;;;;1.23;1.10;;;9.50;1.00;;;;;;4980108;28;20465;-81
2021/12/13 11:17:16;;;;;;;0.77;0.60;;;9.30;1.00;;;;;;4975459;28;20604;-82
2021/12/13 11:19:48;;;;;;;1.33;1.00;;;9.30;1.00;;;;;;4977311;28;20480;-82
2021/12/13 11:22:22;;;;;;;0.87;0.70;;;9.40;1.00;;;;;;4980853;28;20491;-82
2021/12/13 11:24:53;;;;;;;1.50;0.67;;;9.30;21.80;;;;;;4977229;28;20527;-82
2021/12/13 11:27:26;;;;;;;1.13;0.80;;;9.40;1.00;;;;;;4978084;28;20452;-81
2021/12/13 11:29:55;;;;;;;1.90;0.90;;;9.50;1.00;;;;;;4975773;28;20492;-83
2021/12/13 11:32:47;;;;;;;1.83;0.90;;;9.60;1.00;;;;;;4969417;28;20893;-81
2021/12/13 11:35:54;;;;;;;0.90;0.90;;;9.60;99.90;;;;;;4979818;28;20480;-82
2021/12/13 11:39:01;;;;;;;1.50;1.10;;;9.70;1.00;;;;;;4935164;28;20467;-82
2021/12/13 11:41:49;;;;;;;1.10;1.00;;;9.70;99.90;;;;;;4978191;28;20482;-81
2021/12/13 11:44:32;;;;;;;1.20;1.10;;;9.70;99.90;;;;;;4964979;28;20753;-81
2021/12/13 11:47:52;;;;;;;2.87;1.53;;;9.60;1.00;;;;;;4974981;28;20456;-81
2021/12/13 11:50:47;;;;;;;1.33;1.23;;;9.70;99.90;;;;;;4918792;29;20529;-82
2021/12/13 11:53:46;;;;;;;3.53;2.20;;;9.70;99.90;;;;;;4896028;29;20490;-81
2021/12/13 11:56:35;;;;;;;1.53;1.10;;;9.70;1.00;;;;;;4972139;28;20473;-80
2021/12/13 11:59:24;;;;;;;2.10;1.23;;;9.70;99.90;;;;;;4978770;28;20471;-81
2021/12/13 12:02:01;;;;;;;0.80;0.80;;;9.70;99.90;;;;;;4982177;28;20496;-81
2021/12/13 12:05:19;;;;;;;0.93;0.90;;;9.70;99.90;;;;;;4969268;28;20466;-82
2021/12/13 12:08:14;;;;;;;0.80;0.80;;;9.80;99.90;;;;;;4976040;28;20647;-81
2021/12/13 12:11:17;;;;;;;0.90;0.80;;;9.70;1.00;;;;;;4981892;28;21067;-81
2021/12/13 12:13:53;;;;;;;0.73;0.70;;;9.70;1.00;;;;;;4963122;28;20545;-82
2021/12/13 12:16:25;;;;;;;1.13;1.03;;;9.70;50.70;;;;;;4979360;28;20453;-81
2021/12/13 12:18:56;;;;;;;0.87;0.80;;;9.70;99.90;;;;;;4978325;28;21065;-81
2021/12/13 12:21:44;;;;;;;0.93;0.90;;;9.70;99.90;;;;;;4981158;28;21023;-82
2021/12/13 12:24:15;;;;;;;1.20;1.10;;;9.80;58.30;;;;;;4979313;28;20777;-81
2021/12/13 12:26:49;;;;;;;1.27;0.80;;;9.80;99.90;;;;;;4977891;28;20458;-81
2021/12/13 12:29:21;;;;;;;1.80;1.20;;;9.80;99.90;;;;;;4978488;28;21014;-80
2021/12/13 12:31:56;;;;;;;1.30;1.20;;;9.80;99.90;;;;;;4975188;28;20514;-81
2021/12/13 12:34:25;;;;;;;1.50;1.13;;;9.80;99.90;;;;;;4975324;28;20269;-82
2021/12/13 12:37:21;;;;;;;0.90;0.90;;;9.90;1.00;;;;;;4978231;28;20465;-80
2021/12/13 12:40:05;;;;;;;1.10;1.07;;;10.00;1.00;;;;;;4979982;28;20561;-83
2021/12/13 12:42:37;;;;;;;1.73;1.33;;;10.00;1.00;;;;;;4985477;28;20904;-82
2021/12/13 12:45:20;;;;;;;1.77;1.10;;;10.30;1.00;;;;;;4979239;28;20463;-79
2021/12/13 12:48:14;;;;;;;0.97;0.90;;;10.00;1.00;;;;;;4981478;28;20968;-82
2021/12/13 12:50:57;;;;;;;1.00;1.00;;;10.00;99.90;;;;;;4977312;28;20468;-83
2021/12/13 12:53:33;;;;;;;1.20;1.10;;;10.00;99.90;;;;;;4977222;28;20461;-83
2021/12/13 12:56:05;;;;;;;1.13;1.03;;;10.10;99.90;;;;;;4979357;28;20464;-83
2021/12/13 12:58:38;;;;;;;1.80;1.03;;;10.10;93.50;;;;;;4980600;28;20489;-81
2021/12/13 13:01:16;;;;;;;2.27;1.00;;;10.10;1.00;;;;;;4978348;28;20867;-82
2021/12/13 13:03:45;;;;;;;1.23;1.13;;;10.10;99.90;;;;;;4980136;28;20478;-81
2021/12/13 13:06:17;;;;;;;0.70;0.70;;;10.10;99.90;;;;;;4975090;28;20468;-82
2021/12/13 13:08:51;;;;;;;0.70;0.70;;;10.00;1.00;;;;;;4978201;28;21094;-80
2021/12/13 13:11:30;;;;;;;1.87;0.80;;;10.00;99.90;;;;;;4972000;28;20556;-81
2021/12/13 13:14:10;;;;;;;1.00;0.90;;;10.00;99.90;;;;;;4981609;28;21013;-81
2021/12/13 13:16:43;;;;;;;0.77;0.77;;;10.00;99.90;;;;;;4971687;28;20518;-79
2021/12/13 13:19:25;;;;;;;1.40;0.93;;;10.00;39.50;;;;;;4975210;28;20463;-81
2021/12/13 13:21:55;;;;;;;1.27;1.00;;;10.00;1.00;;;;;;4974851;28;20632;-80
2021/12/13 13:24:24;;;;;;;2.87;1.00;;;10.10;1.00;;;;;;4969806;28;20584;-79
2021/12/13 13:26:52;;;;;;;1.23;1.13;;;10.10;1.00;;;;;;4976062;28;20550;-81
2021/12/13 13:29:22;;;;;;;0.70;0.70;;;9.80;99.90;;;;;;4977261;28;20256;-81
2021/12/13 13:31:55;;;;;;;0.87;0.70;;;9.80;99.90;;;;;;4980559;28;20893;-80
2021/12/13 13:34:28;;;;;;;1.10;1.00;;;9.90;99.90;;;;;;4973180;28;20528;-81
2021/12/13 13:37:06;;;;;;;1.60;0.93;;;9.90;99.90;;;;;;4981031;28;20201;-81
2021/12/13 13:39:42;;;;;;;1.57;1.07;;;10.20;1.00;;;;;;4986604;28;20475;-79
2021/12/13 13:42:14;;;;;;;0.80;0.80;;;10.00;99.90;;;;;;4986654;28;20494;-81
2021/12/13 13:44:46;;;;;;;2.13;1.20;;;10.10;99.90;;;;;;4978003;28;20555;-81
2021/12/13 13:47:17;;;;;;;1.40;0.70;;;10.10;1.00;;;;;;4984818;28;20513;-81